Time;durP1;ratioP1;P1;durP2;ratioP2;P2;SDS_P1;SDS_P2;PMS_P1;PMS_P2;Temp;Humidity;BMP_temperature;BMP_pressure;BME280_temperature;BME280_humidity;BME280_pressure;Samples;Min_cycle;Max_cycle;Signal;HPM_P1;HPM_P2
2022/05/20 00:04:17;;;;;;;;;;;;;;;-145.66;100.00;59599.19;10419787;28;20360;-61
2022/05/20 00:09:19;;;;;;;;;;;;;;;-145.66;100.00;59599.19;10419499;28;19925;-63
2022/05/20 00:14:21;;;;;;;;;;;;;;;-145.66;100.00;59599.19;10419175;28;20280;-63
2022/05/20 00:19:24;;;;;;;;;;;;;;;-145.66;100.00;59599.19;10417406;28;19921;-63
2022/05/20 00:24:26;;;;;;;;;;;;;;;-145.66;100.00;59599.19;10419552;28;19921;-63
2022/05/20 00:29:28;;;;;;;;;;;;;;;-145.66;100.00;59599.19;10418743;28;20027;-63
2022/05/20 00:34:30;;;;;;;;;;;;;;;-145.66;100.00;59599.19;10418613;28;20279;-63
2022/05/20 00:39:33;;;;;;;;;;;;;;;-145.66;100.00;59599.19;10417255;28;20288;-63
2022/05/20 00:44:35;;;;;;;;;;;;;;;-145.66;100.00;59599.19;10418190;28;20364;-63
2022/05/20 00:49:37;;;;;;;;;;;;;;;-145.66;100.00;59599.19;10418630;28;19955;-63
2022/05/20 00:54:40;;;;;;;;;;;;;;;-145.66;100.00;59599.19;10418498;28;20008;-63
2022/05/20 00:59:44;;;;;;;;;;;;;;;-145.66;100.00;59599.19;10417110;28;19921;-63
2022/05/20 01:04:46;;;;;;;;;;;;;;;-145.66;100.00;59599.19;10416295;28;20364;-63
2022/05/20 01:09:49;;;;;;;;;;;;;;;-145.66;100.00;59599.19;10415987;28;20280;-63
2022/05/20 01:14:51;;;;;;;;;;;;;;;-145.66;100.00;59599.19;10416842;28;20269;-63
2022/05/20 01:19:54;;;;;;;;;;;;;;;-145.66;100.00;59599.19;10417534;28;19936;-63
2022/05/20 01:24:56;;;;;;;;;;;;;;;-145.66;100.00;59599.19;10417367;28;19921;-63
2022/05/20 01:29:58;;;;;;;;;;;;;;;-145.66;100.00;59599.19;10415219;28;20284;-63
2022/05/20 01:35:01;;;;;;;;;;;;;;;-145.66;100.00;59599.19;10415551;28;20271;-63
2022/05/20 01:40:04;;;;;;;;;;;;;;;-145.66;100.00;59599.19;10416799;28;19921;-63
2022/05/20 01:45:26;;;;;;;;;;;;;;;-145.66;100.00;59599.19;10416703;28;19929;-63
2022/05/20 01:50:29;;;;;;;;;;;;;;;-145.66;100.00;59599.19;10415298;28;19928;-63
2022/05/20 01:55:34;;;;;;;;;;;;;;;-145.66;100.00;59599.19;10414604;28;20380;-63
2022/05/20 02:00:36;;;;;;;;;;;;;;;-145.66;100.00;59599.19;10416225;28;19921;-63
2022/05/20 02:05:48;;;;;;;;;;;;;;;-145.66;100.00;59599.19;10414964;28;19921;-63
2022/05/20 02:10:52;;;;;;;;;;;;;;;-145.66;100.00;59599.19;10415349;28;19929;-63
2022/05/20 02:15:56;;;;;;;;;;;;;;;-145.66;100.00;59599.19;10414034;28;20272;-63
2022/05/20 02:20:59;;;;;;;;;;;;;;;-145.66;100.00;59599.19;10414075;28;19921;-63
2022/05/20 02:26:02;;;;;;;;;;;;;;;-145.66;100.00;59599.19;10415123;28;20287;-63
2022/05/20 02:31:05;;;;;;;;;;;;;;;-145.66;100.00;59599.19;10414916;28;19925;-63
2022/05/20 02:36:09;;;;;;;;;;;;;;;-145.66;100.00;59599.19;10415552;28;19921;-63
2022/05/20 02:41:11;;;;;;;;;;;;;;;-145.66;100.00;59599.19;10413894;28;19932;-63
2022/05/20 02:46:14;;;;;;;;;;;;;;;-145.66;100.00;59599.19;10422502;28;19928;-63
2022/05/20 02:51:17;;;;;;;;;;;;;;;-145.66;100.00;59599.19;10423280;28;19921;-63
2022/05/20 02:56:19;;;;;;;;;;;;;;;-145.66;100.00;59599.19;10423092;28;19975;-62
2022/05/20 03:06:43;;;;;;;;;;;;;;;-145.66;100.00;59599.19;10422716;28;19925;-63
2022/05/20 03:11:45;;;;;;;;;;;;;;;-145.66;100.00;59599.19;10421721;28;20382;-63
2022/05/20 03:16:49;;;;;;;;;;;;;;;-145.66;100.00;59599.19;10421690;28;19920;-63
2022/05/20 03:21:51;;;;;;;;;;;;;;;-145.66;100.00;59599.19;10421484;28;19944;-62
2022/05/20 03:26:53;;;;;;;;;;;;;;;-145.66;100.00;59599.19;10421208;28;19921;-63
2022/05/20 03:31:55;;;;;;;;;;;;;;;-145.66;100.00;59599.19;10421779;28;19921;-63
2022/05/20 03:37:01;;;;;;;;;;;;;;;-145.66;100.00;59599.19;10421512;28;19921;-63
2022/05/20 03:42:03;;;;;;;;;;;;;;;-145.66;100.00;59599.19;10421364;28;19921;-63
2022/05/20 03:47:05;;;;;;;;;;;;;;;-145.66;100.00;59599.19;10420577;28;19921;-63
2022/05/20 03:52:08;;;;;;;;;;;;;;;-145.66;100.00;59599.19;10420501;28;19976;-63
2022/05/20 03:57:10;;;;;;;;;;;;;;;-145.66;100.00;59599.19;10419705;28;19932;-63
2022/05/20 04:02:13;;;;;;;;;;;;;;;-145.66;100.00;59599.19;10403001;28;19928;-63
2022/05/20 04:07:16;;;;;;;;;;;;;;;-145.66;100.00;59599.19;10419696;28;19972;-63
2022/05/20 04:12:22;;;;;;;;;;;;;;;-145.66;100.00;59599.19;10419907;28;19927;-63
2022/05/20 04:17:25;;;;;;;;;;;;;;;-145.66;100.00;59599.19;10419421;28;20261;-63
2022/05/20 04:22:28;;;;;;;;;;;;;;;-145.66;100.00;59599.19;10419180;28;20284;-63
2022/05/20 04:27:30;;;;;;;;;;;;;;;-145.66;100.00;59599.19;10419486;28;19936;-63
2022/05/20 04:32:32;;;;;;;;;;;;;;;-145.66;100.00;59599.19;10418850;28;19924;-63
2022/05/20 04:37:35;;;;;;;;;;;;;;;-145.66;100.00;59599.19;10418609;28;19928;-62
2022/05/20 04:48:01;;;;;;;;;;;;;;;-145.66;100.00;59599.19;10418134;28;19951;-63
2022/05/20 04:53:04;;;;;;;;;;;;;;;-145.66;100.00;59599.19;10418566;28;19921;-62
2022/05/20 04:58:06;;;;;;;;;;;;;;;-145.66;100.00;59599.19;10417773;28;20284;-62
2022/05/20 05:03:11;;;;;;;;;;;;;;;-145.66;100.00;59599.19;10416421;28;20406;-63
2022/05/20 05:08:14;;;;;;;;;;;;;;;-145.66;100.00;59599.19;10415931;28;20031;-62
2022/05/20 05:13:16;;;;;;;;;;;;;;;-145.66;100.00;59599.19;10417321;28;19921;-63
2022/05/20 05:18:23;;;;;;;;;;;;;;;-145.66;100.00;59599.19;10416983;28;20387;-62
2022/05/20 05:23:26;;;;;;;;;;;;;;;-145.66;100.00;59599.19;10417529;28;20031;-63
2022/05/20 05:28:28;;;;;;;;;;;;;;;-145.66;100.00;59599.19;10417181;28;19921;-63
2022/05/20 05:33:30;;;;;;;;;;;;;;;-145.66;100.00;59599.19;10417101;28;19925;-62
2022/05/20 05:38:32;;;;;;;;;;;;;;;-145.66;100.00;59599.19;10416905;28;19921;-63
2022/05/20 05:43:34;;;;;;;;;;;;;;;-145.66;100.00;59599.19;10416763;28;19921;-63
2022/05/20 05:48:37;;;;;;;;;;;;;;;-145.66;100.00;59599.19;10416534;28;19921;-62
2022/05/20 05:53:39;;;;;;;;;;;;;;;-145.66;100.00;59599.19;10415969;28;19936;-62
2022/05/20 05:58:41;;;;;;;;;;;;;;;-145.66;100.00;59599.19;10415729;28;20372;-62
2022/05/20 06:03:43;;;;;;;;;;;;;;;-145.66;100.00;59599.19;10416300;28;19921;-63
2022/05/20 06:08:46;;;;;;;;;;;;;;;-145.66;100.00;59599.19;10415392;28;20364;-62
2022/05/20 06:13:48;;;;;;;;;;;;;;;-145.66;100.00;59599.19;10415210;28;19921;-62
2022/05/20 06:18:51;;;;;;;;;;;;;;;-145.66;100.00;59599.19;10419297;28;19932;-62
2022/05/20 06:23:53;;;;;;;;;;;;;;;-145.66;100.00;59599.19;10423672;28;19950;-62
2022/05/20 06:28:55;;;;;;;;;;;;;;;-145.66;100.00;59599.19;10423446;28;20391;-63
2022/05/20 06:33:58;;;;;;;;;;;;;;;-145.66;100.00;59599.19;10423298;28;20273;-63
2022/05/20 06:44:21;;;;;;;;;;;;;;;-145.66;100.00;59599.19;10424043;28;19921;-63
2022/05/20 06:49:24;;;;;;;;;;;;;;;-145.66;100.00;59599.19;10423277;28;19936;-63
2022/05/20 06:54:26;;;;;;;;;;;;;;;-145.66;100.00;59599.19;10423208;28;20008;-63
2022/05/20 06:59:29;;;;;;;;;;;;;;;-145.66;100.00;59599.19;10423056;28;19927;-63
2022/05/20 07:04:31;;;;;;;;;;;;;;;-145.66;100.00;59599.19;10422764;28;19921;-63
2022/05/20 07:09:33;;;;;;;;;;;;;;;-145.66;100.00;59599.19;10421880;28;19928;-62
2022/05/20 07:14:35;;;;;;;;;;;;;;;-145.66;100.00;59599.19;10422212;28;19928;-63
2022/05/20 07:19:41;;;;;;;;;;;;;;;-145.66;100.00;59599.19;10421096;28;19927;-63
2022/05/20 07:24:43;;;;;;;;;;;;;;;-145.66;100.00;59599.19;10421921;28;19921;-63
2022/05/20 07:29:45;;;;;;;;;;;;;;;-145.66;100.00;59599.19;10427261;23;19928;-63
2022/05/20 07:34:48;;;;;;;;;;;;;;;-145.66;100.00;59599.19;10421098;28;19921;-63
2022/05/20 07:39:50;;;;;;;;;;;;;;;-145.66;100.00;59599.19;10421512;28;19921;-63
2022/05/20 07:44:52;;;;;;;;;;;;;;;-145.66;100.00;59599.19;10421374;28;19921;-63
2022/05/20 07:49:54;;;;;;;;;;;;;;;-145.66;100.00;59599.19;10419322;28;19921;-63
2022/05/20 07:54:57;;;;;;;;;;;;;;;-145.66;100.00;59599.19;10420917;28;19921;-63
2022/05/20 08:00:00;;;;;;;;;;;;;;;-145.66;100.00;59599.19;10420795;28;19921;-63
2022/05/20 08:05:03;;;;;;;;;;;;;;;-145.66;100.00;59599.19;10418792;28;20287;-63
2022/05/20 08:10:07;;;;;;;;;;;;;;;-145.66;100.00;59599.19;10420330;28;19928;-63
2022/05/20 08:15:09;;;;;;;;;;;;;;;-145.66;100.00;59599.19;10420196;28;19921;-63
2022/05/20 08:20:18;;;;;;;;;;;;;;;-145.66;100.00;59599.19;10419966;28;19931;-63
2022/05/20 08:25:20;;;;;;;;;;;;;;;-145.66;100.00;59599.19;10420525;28;19921;-63
2022/05/20 08:30:24;;;;;;;;;;;;;;;-145.66;100.00;59599.19;10418783;28;19928;-63
2022/05/20 08:35:27;;;;;;;;;;;;;;;-145.66;100.00;59599.19;10419394;28;19928;-63
2022/05/20 08:40:31;;;;;;;;;;;;;;;-145.66;100.00;59599.19;10418022;28;19921;-63
2022/05/20 08:45:34;;;;;;;;;;;;;;;-145.66;100.00;59599.19;10418994;28;19921;-63
2022/05/20 08:50:49;;;;;;;;;;;;;;;-145.66;100.00;59599.19;10417552;28;19928;-63
2022/05/20 08:55:52;;;;;;;;;;;;;;;-145.66;100.00;59599.19;10417914;28;20376;-63
2022/05/20 09:00:54;;;;;;;;;;;;;;;-145.66;100.00;59599.19;10417717;28;19945;-63
2022/05/20 09:06:09;;;;;;;;;;;;;;;-145.66;100.00;59599.19;10417523;28;20272;-63
2022/05/20 09:11:12;;;;;;;;;;;;;;;-145.66;100.00;59599.19;10416787;28;19925;-64
2022/05/20 09:16:17;;;;;;;;;;;;;;;-145.66;100.00;59599.19;10417808;28;19921;-63
2022/05/20 09:21:33;;;;;;;;;;;;;;;-145.66;100.00;59599.19;10417708;28;19964;-64
2022/05/20 09:26:36;;;;;;;;;;;;;;;-145.66;100.00;59599.19;10417195;28;19921;-64
2022/05/20 09:31:45;;;;;;;;;;;;;;;-145.66;100.00;59599.19;10416579;28;19921;-61
2022/05/20 09:36:47;;;;;;;;;;;;;;;-145.66;100.00;59599.19;10417171;28;19967;-61
2022/05/20 09:41:51;;;;;;;;;;;;;;;-145.66;100.00;59599.19;10416275;28;20283;-62
2022/05/20 09:46:54;;;;;;;;;;;;;;;-145.66;100.00;59599.19;10415511;28;19921;-62
2022/05/20 09:51:57;;;;;;;;;;;;;;;-145.66;100.00;59599.19;10414535;28;19921;-62
2022/05/20 09:57:18;;;;;;;;;;;;;;;-145.66;100.00;59599.19;10416445;28;19921;-62
2022/05/20 10:02:22;;;;;;;;;;;;;;;-145.66;100.00;59599.19;10416322;28;19931;-62
2022/05/20 10:07:32;;;;;;;;;;;;;;;-145.66;100.00;59599.19;10415019;28;19960;-62
2022/05/20 10:12:34;;;;;;;;;;;;;;;-145.66;100.00;59599.19;10414363;28;19921;-62
2022/05/20 10:17:43;;;;;;;;;;;;;;;-145.66;100.00;59599.19;10414790;28;19925;-62
2022/05/20 10:22:45;;;;;;;;;;;;;;;-145.66;100.00;59599.19;10415907;28;19928;-63
2022/05/20 10:27:47;;;;;;;;;;;;;;;-145.66;100.00;59599.19;10414907;28;19925;-63
2022/05/20 10:32:52;;;;;;;;;;;;;;;-145.66;100.00;59599.19;10415706;28;19921;-63
2022/05/20 10:37:54;;;;;;;;;;;;;;;-145.66;100.00;59599.19;10415609;28;19921;-63
2022/05/20 10:43:13;;;;;;;;;;;;;;;-145.66;100.00;59599.19;10414848;28;20383;-63
2022/05/20 10:48:36;;;;;;;;;;;;;;;-145.66;100.00;59599.19;10414245;28;19928;-63
2022/05/20 10:53:44;;;;;;;;;;;;;;;-145.66;100.00;59599.19;10415374;28;19921;-64
2022/05/20 10:58:47;;;;;;;;;;;;;;;-145.66;100.00;59599.19;10414584;28;20261;-64
2022/05/20 11:04:03;;;;;;;;;;;;;;;-145.66;100.00;59599.19;10416036;28;19927;-64
2022/05/20 11:09:07;;;;;;;;;;;;;;;-145.66;100.00;59599.19;10422758;28;19960;-64
2022/05/20 11:14:18;;;;;;;;;;;;;;;-145.66;100.00;59599.19;10422620;28;19921;-64
2022/05/20 11:19:35;;;;;;;;;;;;;;;-145.66;100.00;59599.19;10421972;28;19921;-64
2022/05/20 11:24:40;;;;;;;;;;;;;;;-145.66;100.00;59599.19;10422170;28;19928;-64
2022/05/20 11:29:43;;;;;;;;;;;;;;;-145.66;100.00;59599.19;10421190;28;19920;-64
2022/05/20 11:35:03;;;;;;;;;;;;;;;-145.66;100.00;59599.19;10421812;28;19921;-64
2022/05/20 11:40:11;;;;;;;;;;;;;;;-145.66;100.00;59599.19;10421020;28;19920;-64
2022/05/20 11:45:27;;;;;;;;;;;;;;;-145.66;100.00;59599.19;10420207;28;19928;-64
2022/05/20 11:50:46;;;;;;;;;;;;;;;-145.66;100.00;59599.19;10419974;28;19928;-64
2022/05/20 11:55:55;;;;;;;;;;;;;;;-145.66;100.00;59599.19;10421037;28;19932;-63
2022/05/20 12:00:57;;;;;;;;;;;;;;;-145.66;100.00;59599.19;10420757;28;20320;-63
2022/05/20 12:06:02;;;;;;;;;;;;;;;-145.66;100.00;59599.19;10418830;28;20303;-64
2022/05/20 12:11:23;;;;;;;;;;;;;;;-145.66;100.00;59599.19;10420337;28;19921;-63
2022/05/20 12:16:25;;;;;;;;;;;;;;;-145.66;100.00;59599.19;10418632;28;20361;-64
2022/05/20 12:27:02;;;;;;;;;;;;;;;-145.66;100.00;59599.19;10418346;28;19928;-64
2022/05/20 12:32:17;;;;;;;;;;;;;;;-145.66;100.00;59599.19;10418839;28;19921;-64
2022/05/20 12:37:37;;;;;;;;;;;;;;;-145.66;100.00;59599.19;10418738;28;20323;-64
2022/05/20 12:42:40;;;;;;;;;;;;;;;-145.66;100.00;59599.19;10418512;28;20291;-62
2022/05/20 12:47:47;;;;;;;;;;;;;;;-145.66;100.00;59599.19;10417232;28;20284;-61
2022/05/20 12:52:50;;;;;;;;;;;;;;;-145.66;100.00;59599.19;10418750;28;19921;-61
2022/05/20 12:58:02;;;;;;;;;;;;;;;-145.66;100.00;59599.19;10418104;28;19929;-61
2022/05/20 13:03:15;;;;;;;;;;;;;;;-145.66;100.00;59599.19;10417788;28;20360;-61
2022/05/20 13:08:18;;;;;;;;;;;;;;;-145.66;100.00;59599.19;10417007;28;19921;-61
2022/05/20 13:13:22;;;;;;;;;;;;;;;-145.66;100.00;59599.19;10418013;28;19921;-61
2022/05/20 13:18:24;;;;;;;;;;;;;;;-145.66;100.00;59599.19;10417225;28;19921;-61
2022/05/20 13:23:46;;;;;;;;;;;;;;;-145.66;100.00;59599.19;10417019;28;19921;-61
2022/05/20 13:28:49;;;;;;;;;;;;;;;-145.66;100.00;59599.19;10415588;28;19921;-62
2022/05/20 13:33:51;;;;;;;;;;;;;;;-145.66;100.00;59599.19;10415487;28;20330;-62
2022/05/20 13:38:54;;;;;;;;;;;;;;;-145.66;100.00;59599.19;10415248;28;19975;-62
2022/05/20 13:43:57;;;;;;;;;;;;;;;-145.66;100.00;59599.19;10415739;28;19925;-62
2022/05/20 13:49:13;;;;;;;;;;;;;;;-145.66;100.00;59599.19;10399183;28;19928;-62
2022/05/20 13:54:19;;;;;;;;;;;;;;;-145.66;100.00;59599.19;10415635;28;19928;-62
2022/05/20 13:59:41;;;;;;;;;;;;;;;-145.66;100.00;59599.19;10415813;28;19947;-62
2022/05/20 14:04:50;;;;;;;;;;;;;;;-145.66;100.00;59599.19;10414582;28;19971;-62
2022/05/20 14:09:56;;;;;;;;;;;;;;;-145.66;100.00;59599.19;10415562;28;19921;-62
2022/05/20 14:14:59;;;;;;;;;;;;;;;-145.66;100.00;59599.19;10416154;28;19927;-62
2022/05/20 14:20:08;;;;;;;;;;;;;;;-145.66;100.00;59599.19;10415362;28;20291;-62
2022/05/20 14:25:22;;;;;;;;;;;;;;;-145.66;100.00;59599.19;10414210;28;19924;-61
2022/05/20 14:30:31;;;;;;;;;;;;;;;-145.66;100.00;59599.19;10414934;28;20353;-61
2022/05/20 14:35:35;;;;;;;;;;;;;;;-145.66;100.00;59599.19;10415090;28;20352;-61
2022/05/20 14:40:40;;;;;;;;;;;;;;;-145.66;100.00;59599.19;10420225;28;19927;-62
2022/05/20 14:45:43;;;;;;;;;;;;;;;-145.66;100.00;59599.19;10422567;28;19929;-62
2022/05/20 14:50:46;;;;;;;;;;;;;;;-145.66;100.00;59599.19;10421685;28;19921;-62
2022/05/20 14:55:53;;;;;;;;;;;;;;;-145.66;100.00;59599.19;10423399;28;19921;-62
2022/05/20 15:00:59;;;;;;;;;;;;;;;-145.66;100.00;59599.19;10423156;28;19973;-62
2022/05/20 15:06:01;;;;;;;;;;;;;;;-145.66;100.00;59599.19;10422344;28;19921;-62
2022/05/20 15:11:06;;;;;;;;;;;;;;;-145.66;100.00;59599.19;10422088;28;19944;-62
2022/05/20 15:16:08;;;;;;;;;;;;;;;-145.66;100.00;59599.19;10422582;28;19928;-62
2022/05/20 15:21:11;;;;;;;;;;;;;;;-145.66;100.00;59599.19;10421231;28;19932;-62
2022/05/20 15:26:16;;;;;;;;;;;;;;;-145.66;100.00;59599.19;10421999;28;19921;-62
2022/05/20 15:36:42;;;;;;;;;;;;;;;-145.66;100.00;59599.19;10421869;28;19925;-62
2022/05/20 15:41:44;;;;;;;;;;;;;;;-145.66;100.00;59599.19;10420970;28;19964;-61
2022/05/20 15:46:46;;;;;;;;;;;;;;;-145.66;100.00;59599.19;10420747;28;20356;-62
2022/05/20 15:51:48;;;;;;;;;;;;;;;-145.66;100.00;59599.19;10420063;28;19992;-61
2022/05/20 15:56:51;;;;;;;;;;;;;;;-145.66;100.00;59599.19;10419257;28;20296;-62
2022/05/20 16:01:53;;;;;;;;;;;;;;;-145.66;100.00;59599.19;10419048;28;20311;-62
2022/05/20 16:06:56;;;;;;;;;;;;;;;-145.66;100.00;59599.19;10419413;28;19921;-62
2022/05/20 16:11:58;;;;;;;;;;;;;;;-145.66;100.00;59599.19;10420134;28;19943;-61
2022/05/20 16:17:00;;;;;;;;;;;;;;;-145.66;100.00;59599.19;10419684;28;19921;-61
2022/05/20 16:22:02;;;;;;;;;;;;;;;-145.66;100.00;59599.19;10419994;28;19925;-61
2022/05/20 16:27:14;;;;;;;;;;;;;;;-145.66;100.00;59599.19;10418499;28;19925;-62
2022/05/20 16:32:16;;;;;;;;;;;;;;;-145.66;100.00;59599.19;10418949;28;20261;-60
2022/05/20 16:37:18;;;;;;;;;;;;;;;-145.66;100.00;59599.19;10418794;28;19921;-61
2022/05/20 16:42:20;;;;;;;;;;;;;;;-145.66;100.00;59599.19;10418610;28;20387;-63
2022/05/20 16:47:23;;;;;;;;;;;;;;;-145.66;100.00;59599.19;10417940;28;19924;-63
2022/05/20 16:52:25;;;;;;;;;;;;;;;-145.66;100.00;59599.19;10418193;28;20364;-63
2022/05/20 17:02:53;;;;;;;;;;;;;;;-145.66;100.00;59599.19;10417127;28;19968;-63
2022/05/20 17:07:55;;;;;;;;;;;;;;;-145.66;100.00;59599.19;10417619;28;20403;-63
2022/05/20 17:12:59;;;;;;;;;;;;;;;-145.66;100.00;59599.19;10417955;28;19924;-64
2022/05/20 17:18:01;;;;;;;;;;;;;;;-145.66;100.00;59599.19;10416688;28;19920;-63
2022/05/20 17:28:25;;;;;;;;;;;;;;;-145.66;100.00;59599.19;10415723;28;19928;-63
2022/05/20 17:33:27;;;;;;;;;;;;;;;-145.66;100.00;59599.19;10416571;28;19921;-63
2022/05/20 17:38:29;;;;;;;;;;;;;;;-145.66;100.00;59599.19;10416486;28;20283;-63
2022/05/20 17:43:31;;;;;;;;;;;;;;;-145.66;100.00;59599.19;10416979;28;19928;-63
2022/05/20 17:48:35;;;;;;;;;;;;;;;-145.66;100.00;59599.19;10416688;28;19921;-63
2022/05/20 17:53:42;;;;;;;;;;;;;;;-145.66;100.00;59599.19;10416659;28;19921;-62
2022/05/20 17:58:44;;;;;;;;;;;;;;;-145.66;100.00;59599.19;10415821;28;19928;-63
2022/05/20 18:03:46;;;;;;;;;;;;;;;-145.66;100.00;59599.19;10416399;28;19935;-63
2022/05/20 18:08:50;;;;;;;;;;;;;;;-145.66;100.00;59599.19;10416179;28;19921;-63
2022/05/20 18:13:52;;;;;;;;;;;;;;;-145.66;100.00;59599.19;10413779;28;19925;-64
2022/05/20 18:18:54;;;;;;;;;;;;;;;-145.66;100.00;59599.19;10414862;28;19921;-64
2022/05/20 18:23:57;;;;;;;;;;;;;;;-145.66;100.00;59599.19;10414151;28;20303;-63
2022/05/20 18:28:59;;;;;;;;;;;;;;;-145.66;100.00;59599.19;10414929;28;20265;-63
2022/05/20 18:34:01;;;;;;;;;;;;;;;-145.66;100.00;59599.19;10415804;28;19921;-63
2022/05/20 18:39:25;;;;;;;;;;;;;;;-145.66;100.00;59599.19;10413915;28;19995;-63
2022/05/20 18:44:27;;;;;;;;;;;;;;;-145.66;100.00;59599.19;10415641;28;19932;-63
2022/05/20 18:49:29;;;;;;;;;;;;;;;-145.66;100.00;59599.19;10415411;28;19921;-62
2022/05/20 18:54:32;;;;;;;;;;;;;;;-145.66;100.00;59599.19;10415427;28;19921;-63
2022/05/20 18:59:34;;;;;;;;;;;;;;;-145.66;100.00;59599.19;10415296;28;19928;-63
2022/05/20 19:04:36;;;;;;;;;;;;;;;-145.66;100.00;59599.19;10414064;28;19936;-63
2022/05/20 19:09:39;;;;;;;;;;;;;;;-145.66;100.00;59599.19;10413903;28;19921;-63
2022/05/20 19:14:41;;;;;;;;;;;;;;;-145.66;100.00;59599.19;10413221;28;20391;-63
2022/05/20 19:19:44;;;;;;;;;;;;;;;-145.66;100.00;59599.19;10413236;28;19921;-63
2022/05/20 19:24:46;;;;;;;;;;;;;;;-145.66;100.00;59599.19;10416282;28;19921;-63
2022/05/20 19:29:48;;;;;;;;;;;;;;;-145.66;100.00;59599.19;10421517;28;19921;-63
2022/05/20 19:34:51;;;;;;;;;;;;;;;-145.66;100.00;59599.19;10421360;28;20364;-63
2022/05/20 19:39:53;;;;;;;;;;;;;;;-145.66;100.00;59599.19;10419944;28;20287;-63
2022/05/20 19:44:55;;;;;;;;;;;;;;;-145.66;100.00;59599.19;10427266;22;20311;-62
2022/05/20 19:49:57;;;;;;;;;;;;;;;-145.66;100.00;59599.19;10421330;28;19921;-62
2022/05/20 19:55:00;;;;;;;;;;;;;;;-145.66;100.00;59599.19;10420577;28;19921;-63
2022/05/20 20:05:35;;;;;;;;;;;;;;;-145.66;100.00;59599.19;10420854;28;19921;-63
2022/05/20 20:10:38;;;;;;;;;;;;;;;-145.66;100.00;59599.19;10418741;28;19920;-63
2022/05/20 20:15:42;;;;;;;;;;;;;;;-145.66;100.00;59599.19;10418868;28;20280;-63
2022/05/20 20:20:44;;;;;;;;;;;;;;;-145.66;100.00;59599.19;10420225;28;19925;-63
2022/05/20 20:26:07;;;;;;;;;;;;;;;-145.66;100.00;59599.19;10419416;28;20326;-63
2022/05/20 20:31:14;;;;;;;;;;;;;;;-145.66;100.00;59599.19;10419167;28;20342;-63
2022/05/20 20:36:16;;;;;;;;;;;;;;;-145.66;100.00;59599.19;10417082;28;19921;-62
2022/05/20 20:41:19;;;;;;;;;;;;;;;-145.66;100.00;59599.19;10419103;28;19921;-63
2022/05/20 20:46:21;;;;;;;;;;;;;;;-145.66;100.00;59599.19;10419180;28;19932;-63
2022/05/20 20:51:23;;;;;;;;;;;;;;;-145.66;100.00;59599.19;10418909;28;19925;-62
2022/05/20 20:56:27;;;;;;;;;;;;;;;-145.66;100.00;59599.19;10418781;28;19921;-62
2022/05/20 21:01:30;;;;;;;;;;;;;;;-145.66;100.00;59599.19;10418553;28;19921;-62
2022/05/20 21:06:33;;;;;;;;;;;;;;;-145.66;100.00;59599.19;10417401;28;20020;-62
2022/05/20 21:12:18;;;;;;;;;;;;;;;-145.66;100.00;59599.19;10418101;28;19921;-63
2022/05/20 21:16:57;;;;;;;;;;;;;;;-145.66;100.00;59599.19;10417219;28;19921;-62
2022/05/20 21:22:00;;;;;;;;;;;;;;;-145.66;100.00;59599.19;10417800;28;19928;-62
2022/05/20 21:27:03;;;;;;;;;;;;;;;-145.66;100.00;59599.19;10417571;28;19975;-62
2022/05/20 21:32:05;;;;;;;;;;;;;;;-145.66;100.00;59599.19;10416719;28;19921;-62
2022/05/20 21:37:08;;;;;;;;;;;;;;;-145.66;100.00;59599.19;10415495;28;19928;-62
2022/05/20 21:42:10;;;;;;;;;;;;;;;-145.66;100.00;59599.19;10416762;28;19932;-62
2022/05/20 21:47:12;;;;;;;;;;;;;;;-145.66;100.00;59599.19;10416911;28;19996;-62
2022/05/20 21:52:17;;;;;;;;;;;;;;;-145.66;100.00;59599.19;10414923;28;20271;-62
2022/05/20 21:57:21;;;;;;;;;;;;;;;-145.66;100.00;59599.19;10415979;28;19943;-62
2022/05/20 22:13:05;;;;;;;;;;;;;;;-145.66;100.00;59599.19;10415736;28;19944;-63
2022/05/20 22:18:07;;;;;;;;;;;;;;;-145.66;100.00;59599.19;10415521;28;19921;-63
2022/05/20 22:23:09;;;;;;;;;;;;;;;-145.66;100.00;59599.19;10416013;28;19925;-62
2022/05/20 22:28:12;;;;;;;;;;;;;;;-145.66;100.00;59599.19;10415904;28;19928;-63
2022/05/20 22:33:14;;;;;;;;;;;;;;;-145.66;100.00;59599.19;10415077;28;20280;-63
2022/05/20 22:38:16;;;;;;;;;;;;;;;-145.66;100.00;59599.19;10415109;28;19920;-62
2022/05/20 22:43:19;;;;;;;;;;;;;;;-145.66;100.00;59599.19;10413932;28;19921;-62
2022/05/20 22:48:21;;;;;;;;;;;;;;;-145.66;100.00;59599.19;10415546;28;20027;-62
2022/05/20 22:53:23;;;;;;;;;;;;;;;-145.66;100.00;59599.19;10414816;28;19924;-62
2022/05/20 22:58:26;;;;;;;;;;;;;;;-145.66;100.00;59599.19;10415440;28;19921;-62
2022/05/20 23:03:30;;;;;;;;;;;;;;;-145.66;100.00;59599.19;10422048;28;19921;-62
2022/05/20 23:08:32;;;;;;;;;;;;;;;-145.66;100.00;59599.19;10422408;28;20364;-62
2022/05/20 23:13:35;;;;;;;;;;;;;;;-145.66;100.00;59599.19;10422760;28;19928;-62
2022/05/20 23:18:37;;;;;;;;;;;;;;;-145.66;100.00;59599.19;10420874;28;19932;-62
2022/05/20 23:23:39;;;;;;;;;;;;;;;-145.66;100.00;59599.19;10422502;28;19921;-62
2022/05/20 23:28:42;;;;;;;;;;;;;;;-145.66;100.00;59599.19;10421617;28;19921;-63
2022/05/20 23:33:44;;;;;;;;;;;;;;;-145.66;100.00;59599.19;10422032;28;19925;-63
2022/05/20 23:38:46;;;;;;;;;;;;;;;-145.66;100.00;59599.19;10421294;28;19921;-63
2022/05/20 23:43:48;;;;;;;;;;;;;;;-145.66;100.00;59599.19;10421057;28;20257;-63
2022/05/20 23:48:51;;;;;;;;;;;;;;;-145.66;100.00;59599.19;10420862;28;20353;-63
2022/05/20 23:53:53;;;;;;;;;;;;;;;-145.66;100.00;59599.19;10420582;28;20387;-62
2022/05/20 23:58:55;;;;;;;;;;;;;;;-145.66;100.00;59599.19;10421101;28;19920;-63
